sensor_id;sensor_type;location;lat;lon;timestamp;pressure;altitude;pressure_sealevel;temperature;humidity
8573;BME280;4324;42.012;24.872;2023-05-19T00:00:36;98854.63;;;14.97;73.25
8573;BME280;4324;42.012;24.872;2023-05-19T00:03:03;98876.28;;;15.22;73.43
8573;BME280;4324;42.012;24.872;2023-05-19T00:05:31;98882.47;;;15.29;73.94
8573;BME280;4324;42.012;24.872;2023-05-19T00:07:59;98884.78;;;15.39;73.13
8573;BME280;4324;42.012;24.872;2023-05-19T00:10:26;98868.50;;;15.27;73.15
8573;BME280;4324;42.012;24.872;2023-05-19T00:12:56;98890.75;;;15.47;72.93
8573;BME280;4324;42.012;24.872;2023-05-19T00:15:25;98827.03;;;15.18;73.69
8573;BME280;4324;42.012;24.872;2023-05-19T00:17:52;98820.88;;;15.17;73.87
8573;BME280;4324;42.012;24.872;2023-05-19T00:20:20;98864.88;;;15.48;73.75
8573;BME280;4324;42.012;24.872;2023-05-19T00:22:47;98862.19;;;15.41;73.52
8573;BME280;4324;42.012;24.872;2023-05-19T00:25:15;98889.31;;;15.52;73.71
8573;BME280;4324;42.012;24.872;2023-05-19T00:27:42;98888.25;;;15.46;73.81
8573;BME280;4324;42.012;24.872;2023-05-19T00:30:09;98889.50;;;15.43;73.97
8573;BME280;4324;42.012;24.872;2023-05-19T00:32:38;98886.63;;;15.45;73.27
8573;BME280;4324;42.012;24.872;2023-05-19T00:35:05;98873.09;;;15.46;72.35
8573;BME280;4324;42.012;24.872;2023-05-19T00:37:32;98870.63;;;15.45;72.47
8573;BME280;4324;42.012;24.872;2023-05-19T00:39:59;98869.59;;;15.46;72.84
8573;BME280;4324;42.012;24.872;2023-05-19T00:42:26;98869.81;;;15.44;73.38
8573;BME280;4324;42.012;24.872;2023-05-19T00:44:53;98873.06;;;15.40;72.20
8573;BME280;4324;42.012;24.872;2023-05-19T00:47:20;98781.94;;;14.68;71.93
8573;BME280;4324;42.012;24.872;2023-05-19T00:49:49;98866.00;;;15.19;72.66
8573;BME280;4324;42.012;24.872;2023-05-19T00:52:16;98880.78;;;15.15;72.64
8573;BME280;4324;42.012;24.872;2023-05-19T00:54:43;98861.59;;;14.98;72.64
8573;BME280;4324;42.012;24.872;2023-05-19T00:57:11;98870.00;;;14.95;72.33
8573;BME280;4324;42.012;24.872;2023-05-19T00:59:39;98866.50;;;14.88;71.64
8573;BME280;4324;42.012;24.872;2023-05-19T01:02:06;98851.47;;;14.80;71.94
8573;BME280;4324;42.012;24.872;2023-05-19T01:04:35;98871.38;;;14.84;72.22
8573;BME280;4324;42.012;24.872;2023-05-19T01:07:05;98878.94;;;14.81;72.24
8573;BME280;4324;42.012;24.872;2023-05-19T01:09:32;98874.66;;;14.80;72.07
8573;BME280;4324;42.012;24.872;2023-05-19T01:11:59;98862.88;;;14.67;71.60
8573;BME280;4324;42.012;24.872;2023-05-19T01:14:28;98874.41;;;14.74;71.59
8573;BME280;4324;42.012;24.872;2023-05-19T01:17:00;98880.38;;;14.76;72.58
8573;BME280;4324;42.012;24.872;2023-05-19T01:19:55;98865.34;;;14.69;72.67
8573;BME280;4324;42.012;24.872;2023-05-19T01:29:07;98856.03;;;14.93;72.91
8573;BME280;4324;42.012;24.872;2023-05-19T01:31:40;98856.69;;;14.95;72.49
8573;BME280;4324;42.012;24.872;2023-05-19T01:34:08;98850.28;;;14.89;71.87
8573;BME280;4324;42.012;24.872;2023-05-19T01:36:40;98847.84;;;14.88;71.66
8573;BME280;4324;42.012;24.872;2023-05-19T01:39:09;98864.69;;;14.95;71.86
8573;BME280;4324;42.012;24.872;2023-05-19T01:41:37;98838.75;;;14.82;71.15
8573;BME280;4324;42.012;24.872;2023-05-19T01:44:07;98853.34;;;14.86;71.05
8573;BME280;4324;42.012;24.872;2023-05-19T01:46:34;98856.00;;;14.86;70.70
8573;BME280;4324;42.012;24.872;2023-05-19T01:49:05;98861.16;;;14.88;71.18
8573;BME280;4324;42.012;24.872;2023-05-19T01:51:33;98865.88;;;14.92;71.53
8573;BME280;4324;42.012;24.872;2023-05-19T01:53:59;98874.53;;;14.94;71.72
8573;BME280;4324;42.012;24.872;2023-05-19T01:56:33;98881.09;;;14.98;72.71
8573;BME280;4324;42.012;24.872;2023-05-19T01:59:15;98805.41;;;14.51;71.30
8573;BME280;4324;42.012;24.872;2023-05-19T02:01:51;98879.84;;;14.94;72.55
8573;BME280;4324;42.012;24.872;2023-05-19T02:04:26;98861.53;;;14.85;72.57
8573;BME280;4324;42.012;24.872;2023-05-19T02:07:00;98873.63;;;14.81;72.42
8573;BME280;4324;42.012;24.872;2023-05-19T02:09:36;98880.25;;;14.91;72.93
8573;BME280;4324;42.012;24.872;2023-05-19T02:12:09;98891.72;;;14.92;71.58
8573;BME280;4324;42.012;24.872;2023-05-19T02:14:40;98879.78;;;14.81;72.26
8573;BME280;4324;42.012;24.872;2023-05-19T02:17:11;98891.47;;;14.87;71.63
8573;BME280;4324;42.012;24.872;2023-05-19T02:19:42;98884.69;;;14.77;71.24
8573;BME280;4324;42.012;24.872;2023-05-19T02:22:09;98885.88;;;14.75;70.88
8573;BME280;4324;42.012;24.872;2023-05-19T02:24:36;98898.81;;;14.78;70.76
8573;BME280;4324;42.012;24.872;2023-05-19T02:27:04;98896.91;;;14.72;71.24
8573;BME280;4324;42.012;24.872;2023-05-19T02:29:31;98876.94;;;14.55;70.93
8573;BME280;4324;42.012;24.872;2023-05-19T02:31:59;98881.03;;;14.57;70.43
8573;BME280;4324;42.012;24.872;2023-05-19T02:34:26;98896.47;;;14.62;70.97
8573;BME280;4324;42.012;24.872;2023-05-19T02:36:55;98881.09;;;14.42;72.30
8573;BME280;4324;42.012;24.872;2023-05-19T02:39:22;98899.91;;;14.56;71.86
8573;BME280;4324;42.012;24.872;2023-05-19T02:41:49;98872.38;;;14.27;71.54
8573;BME280;4324;42.012;24.872;2023-05-19T02:44:16;98905.72;;;14.44;70.61
8573;BME280;4324;42.012;24.872;2023-05-19T02:46:42;98901.56;;;14.35;70.40
8573;BME280;4324;42.012;24.872;2023-05-19T02:49:09;98895.84;;;14.38;70.82
8573;BME280;4324;42.012;24.872;2023-05-19T02:51:36;98900.78;;;14.41;70.70
8573;BME280;4324;42.012;24.872;2023-05-19T02:54:05;98894.56;;;14.34;70.73
8573;BME280;4324;42.012;24.872;2023-05-19T02:56:32;98883.09;;;14.34;70.41
8573;BME280;4324;42.012;24.872;2023-05-19T02:58:59;98901.66;;;14.48;70.36
8573;BME280;4324;42.012;24.872;2023-05-19T03:01:26;98838.66;;;14.06;71.22
8573;BME280;4324;42.012;24.872;2023-05-19T03:03:52;98905.34;;;14.47;71.08
8573;BME280;4324;42.012;24.872;2023-05-19T03:06:19;98913.00;;;14.50;71.16
8573;BME280;4324;42.012;24.872;2023-05-19T03:08:47;98911.06;;;14.44;72.23
8573;BME280;4324;42.012;24.872;2023-05-19T03:11:16;98905.34;;;14.47;72.08
8573;BME280;4324;42.012;24.872;2023-05-19T03:13:43;98909.50;;;14.50;72.23
8573;BME280;4324;42.012;24.872;2023-05-19T03:16:10;98901.59;;;14.42;71.88
8573;BME280;4324;42.012;24.872;2023-05-19T03:18:38;98917.41;;;14.43;71.89
8573;BME280;4324;42.012;24.872;2023-05-19T03:21:05;98899.53;;;14.37;70.89
8573;BME280;4324;42.012;24.872;2023-05-19T03:23:31;98906.50;;;14.38;71.24
8573;BME280;4324;42.012;24.872;2023-05-19T03:25:58;98913.88;;;14.36;71.58
8573;BME280;4324;42.012;24.872;2023-05-19T03:28:27;98911.38;;;14.35;71.97
8573;BME280;4324;42.012;24.872;2023-05-19T03:30:54;98915.50;;;14.37;71.12
8573;BME280;4324;42.012;24.872;2023-05-19T03:33:20;98913.03;;;14.36;71.04
8573;BME280;4324;42.012;24.872;2023-05-19T03:35:48;98917.56;;;14.35;70.77
8573;BME280;4324;42.012;24.872;2023-05-19T03:38:15;98872.63;;;14.04;70.78
8573;BME280;4324;42.012;24.872;2023-05-19T03:40:42;98926.16;;;14.37;70.86
8573;BME280;4324;42.012;24.872;2023-05-19T03:43:09;98924.75;;;14.41;70.31
8573;BME280;4324;42.012;24.872;2023-05-19T03:45:37;98906.91;;;14.35;69.82
8573;BME280;4324;42.012;24.872;2023-05-19T03:48:05;98924.16;;;14.39;70.68
8573;BME280;4324;42.012;24.872;2023-05-19T03:50:32;98937.31;;;14.47;72.16
8573;BME280;4324;42.012;24.872;2023-05-19T03:52:59;98909.56;;;14.35;73.46
8573;BME280;4324;42.012;24.872;2023-05-19T03:55:26;98879.38;;;14.28;73.50
8573;BME280;4324;42.012;24.872;2023-05-19T03:57:54;98908.53;;;14.58;73.03
8573;BME280;4324;42.012;24.872;2023-05-19T04:00:21;98923.84;;;14.77;72.79
8573;BME280;4324;42.012;24.872;2023-05-19T04:02:50;98929.44;;;14.89;72.70
8573;BME280;4324;42.012;24.872;2023-05-19T04:05:17;98939.78;;;14.98;72.40
8573;BME280;4324;42.012;24.872;2023-05-19T04:07:44;98927.44;;;14.97;72.10
8573;BME280;4324;42.012;24.872;2023-05-19T04:10:12;98916.00;;;15.04;71.69
8573;BME280;4324;42.012;24.872;2023-05-19T04:12:39;98923.66;;;15.13;72.09
8573;BME280;4324;42.012;24.872;2023-05-19T04:15:07;98939.09;;;15.31;73.06
8573;BME280;4324;42.012;24.872;2023-05-19T04:17:35;98942.22;;;15.41;73.61
8573;BME280;4324;42.012;24.872;2023-05-19T04:20:05;98938.00;;;15.54;74.02
8573;BME280;4324;42.012;24.872;2023-05-19T04:22:32;98889.69;;;15.35;73.96
8573;BME280;4324;42.012;24.872;2023-05-19T04:24:59;98942.59;;;15.73;74.35
8573;BME280;4324;42.012;24.872;2023-05-19T04:27:26;98936.03;;;15.82;74.86
8573;BME280;4324;42.012;24.872;2023-05-19T04:29:54;98943.06;;;15.96;74.95
8573;BME280;4324;42.012;24.872;2023-05-19T04:32:22;98935.47;;;16.00;75.04
8573;BME280;4324;42.012;24.872;2023-05-19T04:34:50;98935.28;;;16.15;74.92
8573;BME280;4324;42.012;24.872;2023-05-19T04:37:18;98917.84;;;16.19;74.93
8573;BME280;4324;42.012;24.872;2023-05-19T04:39:45;98941.69;;;16.40;74.96
8573;BME280;4324;42.012;24.872;2023-05-19T04:42:12;98941.06;;;16.52;74.95
8573;BME280;4324;42.012;24.872;2023-05-19T04:44:44;98957.53;;;16.75;74.84
8573;BME280;4324;42.012;24.872;2023-05-19T04:47:11;98942.13;;;16.84;74.64
8573;BME280;4324;42.012;24.872;2023-05-19T04:49:38;98926.50;;;16.87;74.46
8573;BME280;4324;42.012;24.872;2023-05-19T04:52:06;98951.34;;;17.08;74.54
8573;BME280;4324;42.012;24.872;2023-05-19T04:54:37;98955.84;;;17.14;74.58
8573;BME280;4324;42.012;24.872;2023-05-19T04:57:05;98950.91;;;17.11;74.47
8573;BME280;4324;42.012;24.872;2023-05-19T04:59:32;98953.13;;;17.27;74.59
8573;BME280;4324;42.012;24.872;2023-05-19T05:01:59;98919.22;;;17.08;74.43
8573;BME280;4324;42.012;24.872;2023-05-19T05:04:26;98937.28;;;17.32;74.30
8573;BME280;4324;42.012;24.872;2023-05-19T05:06:55;98964.78;;;17.53;74.03
8573;BME280;4324;42.012;24.872;2023-05-19T05:09:22;98962.31;;;17.58;74.00
8573;BME280;4324;42.012;24.872;2023-05-19T05:11:51;98963.72;;;17.60;73.84
8573;BME280;4324;42.012;24.872;2023-05-19T05:14:19;98960.78;;;17.69;73.77
8573;BME280;4324;42.012;24.872;2023-05-19T05:16:46;98959.94;;;17.75;73.95
8573;BME280;4324;42.012;24.872;2023-05-19T05:19:14;98947.63;;;17.67;73.73
8573;BME280;4324;42.012;24.872;2023-05-19T05:21:41;98881.69;;;17.28;73.50
8573;BME280;4324;42.012;24.872;2023-05-19T05:24:10;98969.22;;;17.79;73.60
8573;BME280;4324;42.012;24.872;2023-05-19T05:26:38;98974.81;;;17.77;73.88
8573;BME280;4324;42.012;24.872;2023-05-19T05:29:07;98964.53;;;17.67;73.96
8573;BME280;4324;42.012;24.872;2023-05-19T05:31:34;98972.72;;;17.79;73.89
8573;BME280;4324;42.012;24.872;2023-05-19T05:34:02;98959.38;;;17.66;73.72
8573;BME280;4324;42.012;24.872;2023-05-19T05:36:29;98986.13;;;17.79;73.56
8573;BME280;4324;42.012;24.872;2023-05-19T05:38:56;98970.50;;;17.70;73.50
8573;BME280;4324;42.012;24.872;2023-05-19T05:41:24;99003.00;;;17.86;73.57
8573;BME280;4324;42.012;24.872;2023-05-19T05:43:51;98977.88;;;17.74;73.78
8573;BME280;4324;42.012;24.872;2023-05-19T05:46:20;98985.91;;;17.74;73.50
8573;BME280;4324;42.012;24.872;2023-05-19T05:48:47;98975.00;;;17.76;73.79
8573;BME280;4324;42.012;24.872;2023-05-19T05:51:14;98997.22;;;17.89;73.67
8573;BME280;4324;42.012;24.872;2023-05-19T05:53:50;98988.81;;;17.79;73.57
8573;BME280;4324;42.012;24.872;2023-05-19T05:56:20;99003.00;;;17.86;73.57
8573;BME280;4324;42.012;24.872;2023-05-19T05:58:47;99008.75;;;17.83;73.72
8573;BME280;4324;42.012;24.872;2023-05-19T06:01:15;98968.81;;;17.69;73.83
8573;BME280;4324;42.012;24.872;2023-05-19T06:03:43;99008.69;;;18.03;73.84
8573;BME280;4324;42.012;24.872;2023-05-19T06:06:10;99019.72;;;18.20;73.55
8573;BME280;4324;42.012;24.872;2023-05-19T06:08:38;99015.75;;;18.29;73.23
8573;BME280;4324;42.012;24.872;2023-05-19T06:11:05;98976.41;;;18.23;72.78
8573;BME280;4324;42.012;24.872;2023-05-19T06:13:34;99027.50;;;18.60;72.50
8573;BME280;4324;42.012;24.872;2023-05-19T06:16:01;98945.72;;;18.19;72.12
8573;BME280;4324;42.012;24.872;2023-05-19T06:18:28;99002.56;;;18.59;71.76
8573;BME280;4324;42.012;24.872;2023-05-19T06:20:57;99029.25;;;18.79;71.20
8573;BME280;4324;42.012;24.872;2023-05-19T06:23:24;99007.41;;;18.76;71.21
8573;BME280;4324;42.012;24.872;2023-05-19T06:25:53;98992.88;;;18.83;71.18
8573;BME280;4324;42.012;24.872;2023-05-19T06:28:20;99015.78;;;19.11;70.91
8573;BME280;4324;42.012;24.872;2023-05-19T06:30:47;99021.69;;;19.38;70.48
8573;BME280;4324;42.012;24.872;2023-05-19T06:33:17;99027.63;;;19.65;70.20
8573;BME280;4324;42.012;24.872;2023-05-19T06:35:44;98967.94;;;19.63;69.33
8573;BME280;4324;42.012;24.872;2023-05-19T06:38:12;99030.97;;;20.27;68.70
8573;BME280;4324;42.012;24.872;2023-05-19T06:40:39;99032.22;;;20.43;68.09
8573;BME280;4324;42.012;24.872;2023-05-19T06:43:06;99030.03;;;20.52;67.27
8573;BME280;4324;42.012;24.872;2023-05-19T06:45:33;99029.34;;;20.57;67.05
8573;BME280;4324;42.012;24.872;2023-05-19T06:48:00;99035.19;;;20.53;67.02
8573;BME280;4324;42.012;24.872;2023-05-19T06:50:27;99033.63;;;20.46;67.11
8573;BME280;4324;42.012;24.872;2023-05-19T06:52:54;99023.50;;;20.29;67.34
8573;BME280;4324;42.012;24.872;2023-05-19T06:55:23;99042.38;;;20.41;67.51
8573;BME280;4324;42.012;24.872;2023-05-19T06:57:52;99013.34;;;20.31;67.64
8573;BME280;4324;42.012;24.872;2023-05-19T07:00:19;99025.94;;;20.49;67.35
8573;BME280;4324;42.012;24.872;2023-05-19T07:02:46;99000.88;;;20.49;67.26
8573;BME280;4324;42.012;24.872;2023-05-19T07:05:13;99007.72;;;20.63;67.09
8573;BME280;4324;42.012;24.872;2023-05-19T07:07:40;99033.38;;;20.77;67.09
8573;BME280;4324;42.012;24.872;2023-05-19T07:10:08;99008.31;;;20.65;67.15
8573;BME280;4324;42.012;24.872;2023-05-19T07:12:36;99026.69;;;20.80;67.00
8573;BME280;4324;42.012;24.872;2023-05-19T07:15:04;99027.66;;;20.86;66.87
8573;BME280;4324;42.012;24.872;2023-05-19T07:17:31;99028.25;;;20.88;66.63
8573;BME280;4324;42.012;24.872;2023-05-19T07:19:58;99009.06;;;20.84;66.73
8573;BME280;4324;42.012;24.872;2023-05-19T07:22:26;99028.47;;;21.10;66.34
8573;BME280;4324;42.012;24.872;2023-05-19T07:24:53;99034.81;;;21.27;66.12
8573;BME280;4324;42.012;24.872;2023-05-19T07:27:21;99032.84;;;21.46;65.65
8573;BME280;4324;42.012;24.872;2023-05-19T07:29:50;99018.06;;;21.60;65.33
8573;BME280;4324;42.012;24.872;2023-05-19T07:32:16;98981.41;;;21.59;64.99
8573;BME280;4324;42.012;24.872;2023-05-19T07:34:43;99027.06;;;22.18;64.68
8573;BME280;4324;42.012;24.872;2023-05-19T07:37:10;99024.88;;;22.32;64.31
8573;BME280;4324;42.012;24.872;2023-05-19T07:39:37;99030.25;;;22.60;63.49
8573;BME280;4324;42.012;24.872;2023-05-19T07:42:05;99026.75;;;22.77;63.01
8573;BME280;4324;42.012;24.872;2023-05-19T07:44:32;98995.34;;;22.70;62.47
8573;BME280;4324;42.012;24.872;2023-05-19T07:47:01;99028.53;;;23.00;61.99
8573;BME280;4324;42.012;24.872;2023-05-19T07:49:28;99019.66;;;23.04;61.48
8573;BME280;4324;42.012;24.872;2023-05-19T07:51:55;99045.13;;;23.25;60.63
8573;BME280;4324;42.012;24.872;2023-05-19T07:54:22;99023.41;;;23.37;60.31
8573;BME280;4324;42.012;24.872;2023-05-19T07:56:49;99034.56;;;23.62;59.92
8573;BME280;4324;42.012;24.872;2023-05-19T07:59:17;99038.94;;;23.85;59.43
8573;BME280;4324;42.012;24.872;2023-05-19T08:01:44;99033.44;;;24.02;59.19
8573;BME280;4324;42.012;24.872;2023-05-19T08:04:13;99041.72;;;24.18;58.77
8573;BME280;4324;42.012;24.872;2023-05-19T08:06:40;99059.09;;;24.22;58.80
8573;BME280;4324;42.012;24.872;2023-05-19T08:09:08;99049.31;;;24.21;58.65
8573;BME280;4324;42.012;24.872;2023-05-19T08:11:36;99057.09;;;24.12;58.21
8573;BME280;4324;42.012;24.872;2023-05-19T08:14:03;99051.94;;;24.10;58.29
8573;BME280;4324;42.012;24.872;2023-05-19T08:16:30;99054.56;;;24.05;58.43
8573;BME280;4324;42.012;24.872;2023-05-19T08:18:57;99063.13;;;23.97;58.22
8573;BME280;4324;42.012;24.872;2023-05-19T08:21:31;99054.19;;;23.75;58.66
8573;BME280;4324;42.012;24.872;2023-05-19T08:23:59;99057.16;;;23.56;58.70
8573;BME280;4324;42.012;24.872;2023-05-19T08:26:26;99029.28;;;23.34;58.18
8573;BME280;4324;42.012;24.872;2023-05-19T08:28:53;99058.03;;;23.40;57.06
8573;BME280;4324;42.012;24.872;2023-05-19T08:31:21;99045.28;;;23.18;56.70
8573;BME280;4324;42.012;24.872;2023-05-19T08:33:49;99059.34;;;23.21;56.19
8573;BME280;4324;42.012;24.872;2023-05-19T08:36:17;99025.00;;;22.99;56.65
8573;BME280;4324;42.012;24.872;2023-05-19T08:38:45;99048.22;;;23.17;56.28
8573;BME280;4324;42.012;24.872;2023-05-19T08:41:12;99046.91;;;23.19;55.76
8573;BME280;4324;42.012;24.872;2023-05-19T08:43:39;99051.50;;;23.19;55.49
8573;BME280;4324;42.012;24.872;2023-05-19T08:46:06;99057.78;;;23.25;55.93
8573;BME280;4324;42.012;24.872;2023-05-19T08:48:34;99040.91;;;23.17;55.45
8573;BME280;4324;42.012;24.872;2023-05-19T08:51:12;99064.56;;;23.44;54.49
8573;BME280;4324;42.012;24.872;2023-05-19T08:53:41;99055.38;;;23.45;53.95
8573;BME280;4324;42.012;24.872;2023-05-19T08:56:16;99065.84;;;23.58;53.62
8573;BME280;4324;42.012;24.872;2023-05-19T08:58:48;99049.81;;;23.52;53.65
8573;BME280;4324;42.012;24.872;2023-05-19T09:01:15;99040.56;;;23.48;53.76
8573;BME280;4324;42.012;24.872;2023-05-19T09:03:46;99046.19;;;23.63;53.62
8573;BME280;4324;42.012;24.872;2023-05-19T09:06:14;99052.94;;;23.82;53.62
8573;BME280;4324;42.012;24.872;2023-05-19T09:08:42;99031.50;;;23.76;53.49
8573;BME280;4324;42.012;24.872;2023-05-19T09:11:14;99060.69;;;23.96;53.40
8573;BME280;4324;42.012;24.872;2023-05-19T09:13:41;99021.75;;;23.75;53.33
8573;BME280;4324;42.012;24.872;2023-05-19T09:16:08;99035.81;;;23.77;53.21
8573;BME280;4324;42.012;24.872;2023-05-19T09:18:37;99055.69;;;23.87;53.03
8573;BME280;4324;42.012;24.872;2023-05-19T09:21:05;99062.44;;;23.85;52.79
8573;BME280;4324;42.012;24.872;2023-05-19T09:23:33;99037.81;;;23.64;53.08
8573;BME280;4324;42.012;24.872;2023-05-19T09:26:01;99059.34;;;23.76;52.61
8573;BME280;4324;42.012;24.872;2023-05-19T09:28:32;99054.50;;;23.78;52.88
8573;BME280;4324;42.012;24.872;2023-05-19T09:31:00;99058.72;;;23.91;53.17
8573;BME280;4324;42.012;24.872;2023-05-19T09:33:27;99059.94;;;24.00;53.23
8573;BME280;4324;42.012;24.872;2023-05-19T09:35:55;99049.59;;;23.97;52.58
8573;BME280;4324;42.012;24.872;2023-05-19T09:38:23;99055.28;;;23.96;52.90
8573;BME280;4324;42.012;24.872;2023-05-19T09:40:51;99068.84;;;24.01;52.53
8573;BME280;4324;42.012;24.872;2023-05-19T09:43:19;99065.25;;;23.95;52.52
8573;BME280;4324;42.012;24.872;2023-05-19T09:45:48;99043.84;;;23.88;52.53
8573;BME280;4324;42.012;24.872;2023-05-19T09:48:15;99071.94;;;24.09;52.24
8573;BME280;4324;42.012;24.872;2023-05-19T09:50:42;99050.78;;;24.06;52.19
8573;BME280;4324;42.012;24.872;2023-05-19T09:53:12;99058.47;;;24.14;52.22
8573;BME280;4324;42.012;24.872;2023-05-19T09:55:39;99060.72;;;24.23;51.70
8573;BME280;4324;42.012;24.872;2023-05-19T09:58:07;99049.50;;;24.36;51.91
8573;BME280;4324;42.012;24.872;2023-05-19T10:00:35;99047.66;;;24.63;51.39
8573;BME280;4324;42.012;24.872;2023-05-19T10:03:05;98966.59;;;24.52;51.36
8573;BME280;4324;42.012;24.872;2023-05-19T10:05:34;99048.41;;;25.23;50.96
8573;BME280;4324;42.012;24.872;2023-05-19T10:08:02;99045.44;;;25.25;50.78
8573;BME280;4324;42.012;24.872;2023-05-19T10:10:32;99030.66;;;25.05;50.92
8573;BME280;4324;42.012;24.872;2023-05-19T10:13:00;99021.56;;;24.84;50.64
8573;BME280;4324;42.012;24.872;2023-05-19T10:15:28;99050.69;;;24.72;51.01
8573;BME280;4324;42.012;24.872;2023-05-19T10:17:55;99035.72;;;24.65;51.47
8573;BME280;4324;42.012;24.872;2023-05-19T10:20:25;98945.97;;;24.19;51.51
8573;BME280;4324;42.012;24.872;2023-05-19T10:22:53;99020.56;;;24.96;51.57
8573;BME280;4324;42.012;24.872;2023-05-19T10:25:23;99018.31;;;25.20;51.39
8573;BME280;4324;42.012;24.872;2023-05-19T10:27:53;99013.28;;;25.39;50.81
8573;BME280;4324;42.012;24.872;2023-05-19T10:30:26;98998.41;;;25.46;50.05
8573;BME280;4324;42.012;24.872;2023-05-19T10:32:54;99004.91;;;25.40;49.81
8573;BME280;4324;42.012;24.872;2023-05-19T10:38:40;99052.47;;;24.89;50.96
8573;BME280;4324;42.012;24.872;2023-05-19T10:41:12;99052.31;;;24.41;49.45
8573;BME280;4324;42.012;24.872;2023-05-19T10:43:48;99038.75;;;23.92;50.15
8573;BME280;4324;42.012;24.872;2023-05-19T10:46:22;99077.81;;;23.62;50.69
8573;BME280;4324;42.012;24.872;2023-05-19T10:48:50;99093.59;;;22.86;52.31
8573;BME280;4324;42.012;24.872;2023-05-19T10:51:17;99087.31;;;22.12;53.38
8573;BME280;4324;42.012;24.872;2023-05-19T10:53:46;99091.63;;;21.25;54.78
8573;BME280;4324;42.012;24.872;2023-05-19T10:56:27;99104.00;;;20.43;57.65
8573;BME280;4324;42.012;24.872;2023-05-19T10:58:55;99120.47;;;20.16;58.63
8573;BME280;4324;42.012;24.872;2023-05-19T11:01:29;99124.66;;;19.94;60.62
8573;BME280;4324;42.012;24.872;2023-05-19T11:03:58;99120.19;;;19.69;61.81
8573;BME280;4324;42.012;24.872;2023-05-19T11:06:31;99079.38;;;19.10;62.63
8573;BME280;4324;42.012;24.872;2023-05-19T11:09:12;99079.63;;;18.77;64.35
8573;BME280;4324;42.012;24.872;2023-05-19T11:11:46;99041.06;;;18.40;64.99
8573;BME280;4324;42.012;24.872;2023-05-19T11:14:14;98987.91;;;17.99;66.58
8573;BME280;4324;42.012;24.872;2023-05-19T11:16:45;99080.97;;;18.55;67.90
8573;BME280;4324;42.012;24.872;2023-05-19T11:19:17;99007.34;;;18.19;69.78
8573;BME280;4324;42.012;24.872;2023-05-19T11:21:48;99026.56;;;18.48;71.10
8573;BME280;4324;42.012;24.872;2023-05-19T11:24:34;99012.03;;;18.62;71.79
8573;BME280;4324;42.012;24.872;2023-05-19T11:27:18;99030.03;;;18.86;72.16
8573;BME280;4324;42.012;24.872;2023-05-19T11:29:46;99052.69;;;19.16;73.04
8573;BME280;4324;42.012;24.872;2023-05-19T11:32:14;99057.13;;;19.28;74.51
8573;BME280;4324;42.012;24.872;2023-05-19T11:34:42;99052.28;;;19.37;75.04
8573;BME280;4324;42.012;24.872;2023-05-19T11:37:10;99034.44;;;19.43;76.56
8573;BME280;4324;42.012;24.872;2023-05-19T11:39:39;99045.59;;;19.83;76.33
8573;BME280;4324;42.012;24.872;2023-05-19T11:42:08;99020.13;;;20.04;75.59
8573;BME280;4324;42.012;24.872;2023-05-19T11:44:36;99007.16;;;20.43;75.93
8573;BME280;4324;42.012;24.872;2023-05-19T11:47:03;98991.25;;;20.71;76.61
8573;BME280;4324;42.012;24.872;2023-05-19T11:49:31;98983.19;;;21.18;76.75
8573;BME280;4324;42.012;24.872;2023-05-19T11:51:59;99003.75;;;21.71;76.05
8573;BME280;4324;42.012;24.872;2023-05-19T11:54:30;98988.34;;;21.95;74.91
8573;BME280;4324;42.012;24.872;2023-05-19T11:57:00;98956.31;;;21.99;73.31
8573;BME280;4324;42.012;24.872;2023-05-19T11:59:31;99012.19;;;22.61;72.45
8573;BME280;4324;42.012;24.872;2023-05-19T12:02:14;99005.16;;;22.77;72.04
8573;BME280;4324;42.012;24.872;2023-05-19T12:04:42;99020.53;;;23.10;71.18
8573;BME280;4324;42.012;24.872;2023-05-19T12:07:09;98980.78;;;23.05;70.19
8573;BME280;4324;42.012;24.872;2023-05-19T12:09:36;98986.50;;;23.26;69.93
8573;BME280;4324;42.012;24.872;2023-05-19T12:12:05;99002.63;;;23.59;69.51
8573;BME280;4324;42.012;24.872;2023-05-19T12:14:33;99002.06;;;23.79;69.32
8573;BME280;4324;42.012;24.872;2023-05-19T12:17:09;99013.53;;;24.13;68.82
8573;BME280;4324;42.012;24.872;2023-05-19T12:19:36;99005.88;;;24.32;68.34
8573;BME280;4324;42.012;24.872;2023-05-19T12:22:05;99003.00;;;24.39;67.21
8573;BME280;4324;42.012;24.872;2023-05-19T12:24:33;98993.88;;;24.45;66.46
8573;BME280;4324;42.012;24.872;2023-05-19T12:27:10;99006.22;;;24.63;65.93
8573;BME280;4324;42.012;24.872;2023-05-19T12:29:38;98997.59;;;24.66;65.22
8573;BME280;4324;42.012;24.872;2023-05-19T12:32:06;98988.06;;;24.58;64.70
8573;BME280;4324;42.012;24.872;2023-05-19T12:34:35;98990.28;;;24.67;64.50
8573;BME280;4324;42.012;24.872;2023-05-19T12:37:03;99008.28;;;24.83;64.39
8573;BME280;4324;42.012;24.872;2023-05-19T12:39:30;98998.00;;;24.85;63.55
8573;BME280;4324;42.012;24.872;2023-05-19T12:42:00;99004.53;;;24.89;63.00
8573;BME280;4324;42.012;24.872;2023-05-19T12:44:35;98977.38;;;24.79;62.62
8573;BME280;4324;42.012;24.872;2023-05-19T12:47:03;98994.81;;;24.93;62.47
8573;BME280;4324;42.012;24.872;2023-05-19T12:49:31;98992.63;;;24.95;62.00
8573;BME280;4324;42.012;24.872;2023-05-19T12:52:00;98999.22;;;25.04;61.23
8573;BME280;4324;42.012;24.872;2023-05-19T12:54:27;98970.50;;;25.03;61.07
8573;BME280;4324;42.012;24.872;2023-05-19T12:56:57;98983.09;;;25.20;60.66
8573;BME280;4324;42.012;24.872;2023-05-19T12:59:24;98985.28;;;25.28;60.65
8573;BME280;4324;42.012;24.872;2023-05-19T13:01:56;98957.69;;;25.31;59.72
8573;BME280;4324;42.012;24.872;2023-05-19T13:04:24;98968.06;;;25.44;59.59
8573;BME280;4324;42.012;24.872;2023-05-19T13:06:51;98975.16;;;25.61;59.38
8573;BME280;4324;42.012;24.872;2023-05-19T13:09:19;98965.19;;;25.71;58.84
8573;BME280;4324;42.012;24.872;2023-05-19T13:11:46;98951.63;;;25.71;58.73
8573;BME280;4324;42.012;24.872;2023-05-19T13:14:15;98954.16;;;25.93;57.86
8573;BME280;4324;42.012;24.872;2023-05-19T13:16:43;98967.75;;;26.03;57.48
8573;BME280;4324;42.012;24.872;2023-05-19T13:19:13;98954.19;;;26.03;57.26
8573;BME280;4324;42.012;24.872;2023-05-19T13:21:40;98958.25;;;26.11;56.51
8573;BME280;4324;42.012;24.872;2023-05-19T13:24:08;98976.47;;;26.31;56.42
8573;BME280;4324;42.012;24.872;2023-05-19T13:26:35;98961.81;;;26.32;56.38